CP2737 SLCB-SLCB
Flight info
| Callsign | CP2737 |
|---|---|
| Flight time | 0h 12m |
| Altitude | 10000 |
| Route | SLCB TO SLCB TAG |
| Aircraft | C172/L-N/3224 |
Departure
| Time | 2026-04-22 03:01 |
|---|---|
| Airport | Jorge Wilsterman International Airport (SLCB) |
Arrival
| Time | 2026-04-22 03:14 |
|---|---|
| Airport | Jorge Wilsterman International Airport (SLCB) |
| Time | Latitude | Longitude | Altitude | Speed | Heading |
|---|---|---|---|---|---|
| 2026-04-22 02:41 | -17.41565 | -66.17144 | 8361 ft | 0 kts | 115° |
| 2026-04-22 02:41 | -17.41564 | -66.17147 | 8361 ft | 3 kts | 115° |
| 2026-04-22 02:41 | -17.41557 | -66.17161 | 8361 ft | 0 kts | 115° |
| 2026-04-22 02:52 | -17.41567 | -66.17156 | 8361 ft | 5 kts | 189° |
| 2026-04-22 02:52 | -17.41575 | -66.17183 | 8361 ft | 0 kts | 301° |
| 2026-04-22 02:53 | -17.41561 | -66.17208 | 8361 ft | 13 kts | 302° |
| 2026-04-22 02:53 | -17.41477 | -66.17207 | 8362 ft | 16 kts | 37° |
| 2026-04-22 02:53 | -17.41384 | -66.17133 | 8364 ft | 17 kts | 36° |
| 2026-04-22 02:54 | -17.41269 | -66.17130 | 8364 ft | 18 kts | 337° |
| 2026-04-22 02:54 | -17.41157 | -66.17156 | 8363 ft | 15 kts | 28° |
| 2026-04-22 02:54 | -17.41104 | -66.17081 | 8364 ft | 11 kts | 83° |
| 2026-04-22 02:54 | -17.41103 | -66.17074 | 8364 ft | 0 kts | 83° |
| 2026-04-22 02:58 | -17.41101 | -66.17058 | 8364 ft | 11 kts | 83° |
| 2026-04-22 02:58 | -17.41084 | -66.16926 | 8366 ft | 16 kts | 109° |
| 2026-04-22 02:59 | -17.41123 | -66.16925 | 8366 ft | 0 kts | 221° |
| 2026-04-22 02:59 | -17.41175 | -66.16967 | 8366 ft | 26 kts | 218° |
| 2026-04-22 02:59 | -17.41409 | -66.17154 | 8364 ft | 58 kts | 217° |
| 2026-04-22 03:00 | -17.41802 | -66.17470 | 8366 ft | 82 kts | 218° |
| 2026-04-22 03:00 | -17.42259 | -66.17832 | 8441 ft | 85 kts | 218° |
| 2026-04-22 03:00 | -17.42730 | -66.18212 | 8542 ft | 84 kts | 217° |
| 2026-04-22 03:00 | -17.43194 | -66.18569 | 8666 ft | 82 kts | 216° |
| 2026-04-22 03:01 | -17.43658 | -66.18923 | 8764 ft | 82 kts | 216° |
| 2026-04-22 03:01 | -17.44195 | -66.18961 | 8829 ft | 87 kts | 143° |
| 2026-04-22 03:01 | -17.44574 | -66.18467 | 8924 ft | 88 kts | 128° |
| 2026-04-22 03:01 | -17.44951 | -66.17966 | 9042 ft | 87 kts | 128° |
| 2026-04-22 03:02 | -17.45320 | -66.17468 | 9137 ft | 87 kts | 116° |
| 2026-04-22 03:02 | -17.45237 | -66.16876 | 9247 ft | 86 kts | 44° |
| 2026-04-22 03:02 | -17.44740 | -66.16516 | 9322 ft | 89 kts | 31° |
| 2026-04-22 03:02 | -17.44211 | -66.16158 | 9413 ft | 91 kts | 30° |
| 2026-04-22 03:03 | -17.43675 | -66.15793 | 9499 ft | 93 kts | 31° |
| 2026-04-22 03:03 | -17.43120 | -66.15426 | 9485 ft | 97 kts | 30° |
| 2026-04-22 03:03 | -17.42536 | -66.15075 | 9511 ft | 97 kts | 28° |
| 2026-04-22 03:03 | -17.41947 | -66.14709 | 9423 ft | 101 kts | 31° |
| 2026-04-22 03:04 | -17.41379 | -66.14323 | 9359 ft | 92 kts | 31° |
| 2026-04-22 03:04 | -17.40862 | -66.13982 | 9270 ft | 85 kts | 31° |
| 2026-04-22 03:04 | -17.40320 | -66.13932 | 9157 ft | 81 kts | 327° |
| 2026-04-22 03:04 | -17.39916 | -66.14350 | 9079 ft | 82 kts | 307° |
| 2026-04-22 03:05 | -17.39573 | -66.14826 | 9026 ft | 81 kts | 304° |
| 2026-04-22 03:05 | -17.39386 | -66.15342 | 8938 ft | 79 kts | 257° |
| 2026-04-22 03:05 | -17.39730 | -66.15794 | 8757 ft | 83 kts | 221° |
| 2026-04-22 03:05 | -17.40170 | -66.16160 | 8663 ft | 79 kts | 217° |
| 2026-04-22 03:06 | -17.40578 | -66.16489 | 8521 ft | 72 kts | 218° |
| 2026-04-22 03:06 | -17.40975 | -66.16802 | 8436 ft | 72 kts | 218° |
| 2026-04-22 03:06 | -17.41340 | -66.17097 | 8365 ft | 56 kts | 218° |
| 2026-04-22 03:06 | -17.41633 | -66.17330 | 8360 ft | 60 kts | 216° |
| 2026-04-22 03:07 | -17.42028 | -66.17644 | 8399 ft | 76 kts | 216° |
| 2026-04-22 03:07 | -17.42449 | -66.17984 | 8484 ft | 78 kts | 218° |
| 2026-04-22 03:07 | -17.42872 | -66.18335 | 8582 ft | 78 kts | 217° |
| 2026-04-22 03:07 | -17.43302 | -66.18673 | 8677 ft | 78 kts | 217° |
| 2026-04-22 03:08 | -17.43731 | -66.19025 | 8748 ft | 81 kts | 225° |
| 2026-04-22 03:08 | -17.43820 | -66.19598 | 8817 ft | 84 kts | 296° |
| 2026-04-22 03:08 | -17.43474 | -66.20127 | 8877 ft | 91 kts | 303° |
| 2026-04-22 03:08 | -17.43108 | -66.20667 | 8976 ft | 92 kts | 306° |
| 2026-04-22 03:09 | -17.42697 | -66.21180 | 9072 ft | 91 kts | 323° |
| 2026-04-22 03:09 | -17.42074 | -66.21223 | 9154 ft | 95 kts | 23° |
| 2026-04-22 03:09 | -17.41700 | -66.20957 | 9213 ft | 98 kts | 35° |
| 2026-04-22 03:09 | -17.40996 | -66.20350 | 9337 ft | 98 kts | 41° |
| 2026-04-22 03:10 | -17.40662 | -66.20033 | 9448 ft | 95 kts | 42° |
| 2026-04-22 03:10 | -17.40148 | -66.19551 | 9505 ft | 99 kts | 39° |
| 2026-04-22 03:10 | -17.39602 | -66.19074 | 9539 ft | 105 kts | 40° |
| 2026-04-22 03:10 | -17.39021 | -66.18548 | 9489 ft | 112 kts | 43° |
| 2026-04-22 03:11 | -17.38497 | -66.18013 | 9430 ft | 103 kts | 45° |
| 2026-04-22 03:11 | -17.38007 | -66.17476 | 9402 ft | 96 kts | 45° |
| 2026-04-22 03:11 | -17.37548 | -66.16983 | 9355 ft | 94 kts | 43° |
| 2026-04-22 03:11 | -17.37241 | -66.16400 | 9269 ft | 99 kts | 91° |
| 2026-04-22 03:12 | -17.37572 | -66.15801 | 9203 ft | 99 kts | 133° |
| 2026-04-22 03:12 | -17.38440 | -66.14885 | 8960 ft | 84 kts | 150° |
| 2026-04-22 03:12 | -17.38990 | -66.14896 | 8848 ft | 83 kts | 217° |
| 2026-04-22 03:13 | -17.39353 | -66.15374 | 8713 ft | 84 kts | 227° |
| 2026-04-22 03:13 | -17.39743 | -66.15803 | 8634 ft | 80 kts | 215° |
| 2026-04-22 03:13 | -17.40194 | -66.16180 | 8633 ft | 86 kts | 219° |
| 2026-04-22 03:13 | -17.40662 | -66.16552 | 8588 ft | 79 kts | 218° |
| 2026-04-22 03:14 | -17.41080 | -66.16892 | 8399 ft | 73 kts | 217° |
| 2026-04-22 03:14 | -17.41432 | -66.17169 | 8363 ft | 54 kts | 217° |
| 2026-04-22 03:14 | -17.41646 | -66.17346 | 8360 ft | 22 kts | 221° |
| 2026-04-22 03:14 | -17.41697 | -66.17375 | 8359 ft | 6 kts | 47° |
| 2026-04-22 03:15 | -17.41632 | -66.17329 | 8360 ft | 13 kts | 36° |
| 2026-04-22 03:15 | -17.41570 | -66.17281 | 8361 ft | 10 kts | 42° |
| 2026-04-22 03:15 | -17.41559 | -66.17210 | 8361 ft | 11 kts | 121° |
| 2026-04-22 03:15 | -17.41612 | -66.17159 | 8361 ft | 10 kts | 153° |
| 2026-04-22 03:16 | -17.41658 | -66.17133 | 8360 ft | 0 kts | 174° |
| 2026-04-22 03:18 | -17.41557 | -66.17161 | 8361 ft | 0 kts | 114° |
| 2026-04-22 03:18 | -17.41199 | -66.17160 | 8363 ft | 17 kts | 336° |
| 2026-04-22 03:18 | -17.41103 | -66.17074 | 8364 ft | 0 kts | 83° |
| 2026-04-22 03:18 | -17.41575 | -66.17183 | 8361 ft | 0 kts | 301° |
| 2026-04-22 03:19 | -17.41557 | -66.17161 | 8361 ft | 0 kts | 114° |
| 2026-04-22 03:21 | -17.41573 | -66.17160 | 8361 ft | 6 kts | 227° |
| 2026-04-22 03:21 | -17.41575 | -66.17183 | 8361 ft | 0 kts | 301° |
| 2026-04-22 03:22 | -17.41549 | -66.17227 | 8361 ft | 14 kts | 309° |
| 2026-04-22 03:22 | -17.41457 | -66.17191 | 8363 ft | 16 kts | 37° |
| 2026-04-22 03:22 | -17.41361 | -66.17119 | 8365 ft | 17 kts | 18° |
| 2026-04-22 03:22 | -17.41243 | -66.17141 | 8363 ft | 18 kts | 338° |
| 2026-04-22 03:23 | -17.41138 | -66.17143 | 8363 ft | 14 kts | 44° |
| 2026-04-22 03:23 | -17.41103 | -66.17074 | 8364 ft | 0 kts | 83° |
| 2026-04-22 03:27 | -17.41099 | -66.17032 | 8364 ft | 19 kts | 81° |
| 2026-04-22 03:27 | -17.41100 | -66.16910 | 8366 ft | 12 kts | 172° |
| 2026-04-22 03:27 | -17.41123 | -66.16925 | 8366 ft | 0 kts | 221° |
| 2026-04-22 03:28 | -17.41213 | -66.16997 | 8365 ft | 34 kts | 217° |
| 2026-04-22 03:28 | -17.41487 | -66.17215 | 8362 ft | 65 kts | 217° |
| 2026-04-22 03:28 | -17.41906 | -66.17554 | 8385 ft | 83 kts | 217° |
| 2026-04-22 03:29 | -17.42373 | -66.17925 | 8463 ft | 85 kts | 218° |
| 2026-04-22 03:29 | -17.42843 | -66.18301 | 8574 ft | 82 kts | 217° |
| 2026-04-22 03:29 | -17.43302 | -66.18651 | 8681 ft | 83 kts | 216° |
| 2026-04-22 03:29 | -17.43770 | -66.18995 | 8780 ft | 83 kts | 206° |
| 2026-04-22 03:30 | -17.44295 | -66.18860 | 8863 ft | 86 kts | 128° |
| 2026-04-22 03:30 | -17.44662 | -66.18350 | 8957 ft | 88 kts | 128° |
| 2026-04-22 03:30 | -17.45043 | -66.17847 | 9069 ft | 86 kts | 129° |
| 2026-04-22 03:30 | -17.45367 | -66.17321 | 9157 ft | 88 kts | 98° |
| 2026-04-22 03:31 | -17.45133 | -66.16784 | 9273 ft | 85 kts | 30° |
| 2026-04-22 03:31 | -17.44621 | -66.16433 | 9333 ft | 91 kts | 32° |
| 2026-04-22 03:31 | -17.44089 | -66.16076 | 9429 ft | 92 kts | 32° |
| 2026-04-22 03:31 | -17.43550 | -66.15710 | 9503 ft | 94 kts | 31° |
| 2026-04-22 03:32 | -17.42988 | -66.15342 | 9484 ft | 98 kts | 30° |
| 2026-04-22 03:32 | -17.42403 | -66.14993 | 9492 ft | 97 kts | 30° |
| 2026-04-22 03:32 | -17.41812 | -66.14619 | 9408 ft | 100 kts | 32° |
| 2026-04-22 03:32 | -17.41258 | -66.14243 | 9342 ft | 90 kts | 31° |
| 2026-04-22 03:33 | -17.40746 | -66.13915 | 9243 ft | 84 kts | 22° |
| 2026-04-22 03:33 | -17.40215 | -66.14012 | 9132 ft | 82 kts | 316° |
| 2026-04-22 03:33 | -17.39837 | -66.14458 | 9067 ft | 82 kts | 306° |
| 2026-04-22 03:33 | -17.39501 | -66.14935 | 9010 ft | 80 kts | 303° |
| 2026-04-22 03:34 | -17.39432 | -66.15462 | 8907 ft | 78 kts | 239° |
| 2026-04-22 03:34 | -17.39830 | -66.15882 | 8733 ft | 82 kts | 220° |
| 2026-04-22 03:34 | -17.40267 | -66.16238 | 8637 ft | 76 kts | 219° |
| 2026-04-22 03:34 | -17.40670 | -66.16562 | 8496 ft | 73 kts | 217° |
| 2026-04-22 03:35 | -17.41069 | -66.16880 | 8406 ft | 71 kts | 219° |
| 2026-04-22 03:35 | -17.41412 | -66.17155 | 8364 ft | 52 kts | 215° |
| 2026-04-22 03:35 | -17.41716 | -66.17398 | 8358 ft | 66 kts | 219° |
| 2026-04-22 03:35 | -17.42129 | -66.17724 | 8421 ft | 76 kts | 217° |
| 2026-04-22 03:36 | -17.42551 | -66.18070 | 8508 ft | 77 kts | 219° |
| 2026-04-22 03:36 | -17.42976 | -66.18417 | 8608 ft | 77 kts | 216° |
| 2026-04-22 03:36 | -17.43404 | -66.18757 | 8701 ft | 78 kts | 219° |
| 2026-04-22 03:36 | -17.43817 | -66.19144 | 8730 ft | 87 kts | 242° |
| 2026-04-22 03:37 | -17.43746 | -66.19728 | 8830 ft | 86 kts | 303° |
| 2026-04-22 03:37 | -17.43388 | -66.20259 | 8900 ft | 91 kts | 303° |
| 2026-04-22 03:37 | -17.43018 | -66.20788 | 8994 ft | 93 kts | 307° |
| 2026-04-22 03:37 | -17.42567 | -66.21252 | 9082 ft | 93 kts | 339° |
| 2026-04-22 03:38 | -17.41942 | -66.21144 | 9176 ft | 96 kts | 33° |
| 2026-04-22 03:38 | -17.41399 | -66.20718 | 9259 ft | 99 kts | 40° |
| 2026-04-22 03:38 | -17.40880 | -66.20241 | 9382 ft | 96 kts | 42° |
| 2026-04-22 03:38 | -17.40383 | -66.19764 | 9446 ft | 102 kts | 42° |
| 2026-04-22 03:39 | -17.39849 | -66.19293 | 9526 ft | 103 kts | 40° |
| 2026-04-22 03:39 | -17.39284 | -66.18791 | 9519 ft | 112 kts | 40° |
| 2026-04-22 03:39 | -17.38717 | -66.18242 | 9452 ft | 106 kts | 45° |
| 2026-04-22 03:39 | -17.38211 | -66.17704 | 9401 ft | 103 kts | 47° |
| 2026-04-22 03:40 | -17.37753 | -66.17199 | 9368 ft | 94 kts | 45° |
| 2026-04-22 03:40 | -17.37312 | -66.16701 | 9334 ft | 94 kts | 61° |
| 2026-04-22 03:40 | -17.37369 | -66.16035 | 9255 ft | 97 kts | 129° |
| 2026-04-22 03:40 | -17.37821 | -66.15517 | 9201 ft | 90 kts | 133° |
| 2026-04-22 03:41 | -17.38236 | -66.15059 | 9020 ft | 85 kts | 139° |
| 2026-04-22 03:41 | -17.38749 | -66.14809 | 8903 ft | 83 kts | 186° |
| 2026-04-22 03:41 | -17.39203 | -66.15148 | 8769 ft | 85 kts | 234° |
| 2026-04-22 03:41 | -17.39562 | -66.15625 | 8663 ft | 81 kts | 219° |
| 2026-04-22 03:42 | -17.39990 | -66.16010 | 8631 ft | 84 kts | 217° |
| 2026-04-22 03:42 | -17.40460 | -66.16395 | 8637 ft | 86 kts | 217° |
| 2026-04-22 03:42 | -17.40896 | -66.16743 | 8478 ft | 76 kts | 217° |
| 2026-04-22 03:42 | -17.41291 | -66.17057 | 8368 ft | 62 kts | 217° |
| 2026-04-22 03:43 | -17.41580 | -66.17289 | 8361 ft | 38 kts | 218° |
| 2026-04-22 03:43 | -17.41699 | -66.17393 | 8358 ft | 10 kts | 144° |
| 2026-04-22 03:43 | -17.41665 | -66.17354 | 8359 ft | 14 kts | 32° |
| 2026-04-22 03:43 | -17.41595 | -66.17301 | 8361 ft | 11 kts | 37° |
| 2026-04-22 03:44 | -17.41547 | -66.17244 | 8361 ft | 12 kts | 86° |
| 2026-04-22 03:44 | -17.41586 | -66.17174 | 8361 ft | 11 kts | 144° |
| 2026-04-22 03:44 | -17.41642 | -66.17139 | 8360 ft | 8 kts | 143° |
| 2026-04-22 03:44 | -17.41658 | -66.17133 | 8360 ft | 0 kts | 174° |